sensor_id;sensor_type;location;lat;lon;timestamp;P1;durP1;ratioP1;P2;durP2;ratioP2
13443;SDS011;6794;59.218;18.218;2022-07-21T00:01:02;6.17;;;5.33;;
13443;SDS011;6794;59.218;18.218;2022-07-21T00:03:28;6.87;;;5.53;;
13443;SDS011;6794;59.218;18.218;2022-07-21T00:05:54;5.90;;;5.30;;
13443;SDS011;6794;59.218;18.218;2022-07-21T00:08:20;6.70;;;5.70;;
13443;SDS011;6794;59.218;18.218;2022-07-21T00:10:47;7.27;;;5.60;;
13443;SDS011;6794;59.218;18.218;2022-07-21T00:13:13;8.43;;;6.10;;
13443;SDS011;6794;59.218;18.218;2022-07-21T00:15:39;9.00;;;5.57;;
13443;SDS011;6794;59.218;18.218;2022-07-21T00:18:05;6.77;;;5.27;;
13443;SDS011;6794;59.218;18.218;2022-07-21T00:20:31;6.57;;;5.57;;
13443;SDS011;6794;59.218;18.218;2022-07-21T00:22:57;6.37;;;5.37;;
13443;SDS011;6794;59.218;18.218;2022-07-21T00:25:24;7.60;;;5.50;;
13443;SDS011;6794;59.218;18.218;2022-07-21T00:27:50;6.70;;;5.20;;
13443;SDS011;6794;59.218;18.218;2022-07-21T00:30:16;6.23;;;5.63;;
13443;SDS011;6794;59.218;18.218;2022-07-21T00:32:42;7.77;;;5.40;;
13443;SDS011;6794;59.218;18.218;2022-07-21T00:35:09;6.30;;;5.17;;
13443;SDS011;6794;59.218;18.218;2022-07-21T00:37:36;7.33;;;5.60;;
13443;SDS011;6794;59.218;18.218;2022-07-21T00:40:02;7.60;;;5.27;;
13443;SDS011;6794;59.218;18.218;2022-07-21T00:42:30;5.70;;;5.10;;
13443;SDS011;6794;59.218;18.218;2022-07-21T00:44:56;6.67;;;5.63;;
13443;SDS011;6794;59.218;18.218;2022-07-21T00:47:23;6.13;;;5.53;;
13443;SDS011;6794;59.218;18.218;2022-07-21T00:49:49;7.17;;;5.10;;
13443;SDS011;6794;59.218;18.218;2022-07-21T00:52:15;7.33;;;5.80;;
13443;SDS011;6794;59.218;18.218;2022-07-21T00:54:42;6.73;;;5.37;;
13443;SDS011;6794;59.218;18.218;2022-07-21T00:57:08;6.88;;;6.05;;
13443;SDS011;6794;59.218;18.218;2022-07-21T00:59:35;7.87;;;5.97;;
13443;SDS011;6794;59.218;18.218;2022-07-21T01:02:01;6.03;;;5.10;;
13443;SDS011;6794;59.218;18.218;2022-07-21T01:04:28;6.03;;;5.27;;
13443;SDS011;6794;59.218;18.218;2022-07-21T01:06:54;6.23;;;5.00;;
13443;SDS011;6794;59.218;18.218;2022-07-21T01:09:20;6.43;;;5.37;;
13443;SDS011;6794;59.218;18.218;2022-07-21T01:11:46;6.60;;;6.00;;
13443;SDS011;6794;59.218;18.218;2022-07-21T01:14:12;6.30;;;5.67;;
13443;SDS011;6794;59.218;18.218;2022-07-21T01:16:39;7.80;;;5.77;;
13443;SDS011;6794;59.218;18.218;2022-07-21T01:19:06;6.60;;;5.67;;
13443;SDS011;6794;59.218;18.218;2022-07-21T01:21:36;7.30;;;5.60;;
13443;SDS011;6794;59.218;18.218;2022-07-21T01:24:03;9.23;;;6.03;;
13443;SDS011;6794;59.218;18.218;2022-07-21T01:26:30;7.50;;;6.13;;
13443;SDS011;6794;59.218;18.218;2022-07-21T01:28:56;8.90;;;5.53;;
13443;SDS011;6794;59.218;18.218;2022-07-21T01:31:22;5.70;;;5.20;;
13443;SDS011;6794;59.218;18.218;2022-07-21T01:33:49;7.17;;;5.40;;
13443;SDS011;6794;59.218;18.218;2022-07-21T01:36:15;6.57;;;5.20;;
13443;SDS011;6794;59.218;18.218;2022-07-21T01:38:41;6.73;;;6.03;;
13443;SDS011;6794;59.218;18.218;2022-07-21T01:41:26;8.17;;;5.50;;
13443;SDS011;6794;59.218;18.218;2022-07-21T01:43:56;7.87;;;6.00;;
13443;SDS011;6794;59.218;18.218;2022-07-21T01:46:23;7.53;;;5.47;;
13443;SDS011;6794;59.218;18.218;2022-07-21T01:48:49;5.80;;;5.27;;
13443;SDS011;6794;59.218;18.218;2022-07-21T01:51:15;5.97;;;4.73;;
13443;SDS011;6794;59.218;18.218;2022-07-21T01:53:41;6.27;;;5.03;;
13443;SDS011;6794;59.218;18.218;2022-07-21T01:56:07;5.63;;;5.00;;
13443;SDS011;6794;59.218;18.218;2022-07-21T01:58:34;8.63;;;5.27;;
13443;SDS011;6794;59.218;18.218;2022-07-21T02:01:00;6.60;;;5.90;;
13443;SDS011;6794;59.218;18.218;2022-07-21T02:03:26;11.40;;;5.93;;
13443;SDS011;6794;59.218;18.218;2022-07-21T02:05:52;5.90;;;4.90;;
13443;SDS011;6794;59.218;18.218;2022-07-21T02:08:18;5.10;;;4.60;;
13443;SDS011;6794;59.218;18.218;2022-07-21T02:10:44;6.43;;;4.87;;
13443;SDS011;6794;59.218;18.218;2022-07-21T02:13:10;6.23;;;5.63;;
13443;SDS011;6794;59.218;18.218;2022-07-21T02:15:36;5.80;;;5.20;;
13443;SDS011;6794;59.218;18.218;2022-07-21T02:18:02;8.53;;;5.80;;
13443;SDS011;6794;59.218;18.218;2022-07-21T02:20:28;7.00;;;5.60;;
13443;SDS011;6794;59.218;18.218;2022-07-21T02:22:55;6.87;;;5.00;;
13443;SDS011;6794;59.218;18.218;2022-07-21T02:25:21;6.43;;;5.33;;
13443;SDS011;6794;59.218;18.218;2022-07-21T02:27:47;6.50;;;4.70;;
13443;SDS011;6794;59.218;18.218;2022-07-21T02:30:13;6.70;;;5.10;;
13443;SDS011;6794;59.218;18.218;2022-07-21T02:32:39;5.67;;;5.17;;
13443;SDS011;6794;59.218;18.218;2022-07-21T02:35:05;7.30;;;5.23;;
13443;SDS011;6794;59.218;18.218;2022-07-21T02:37:32;7.47;;;5.00;;
13443;SDS011;6794;59.218;18.218;2022-07-21T02:39:58;5.33;;;4.70;;
13443;SDS011;6794;59.218;18.218;2022-07-21T02:42:24;5.47;;;5.00;;
13443;SDS011;6794;59.218;18.218;2022-07-21T02:44:50;4.93;;;4.47;;
13443;SDS011;6794;59.218;18.218;2022-07-21T02:47:16;6.77;;;5.27;;
13443;SDS011;6794;59.218;18.218;2022-07-21T02:49:42;6.83;;;5.17;;
13443;SDS011;6794;59.218;18.218;2022-07-21T02:52:10;5.83;;;5.23;;
13443;SDS011;6794;59.218;18.218;2022-07-21T02:54:36;7.03;;;4.80;;
13443;SDS011;6794;59.218;18.218;2022-07-21T02:57:02;6.00;;;4.97;;
13443;SDS011;6794;59.218;18.218;2022-07-21T02:59:28;5.83;;;5.10;;
13443;SDS011;6794;59.218;18.218;2022-07-21T03:01:54;7.33;;;5.27;;
13443;SDS011;6794;59.218;18.218;2022-07-21T03:04:20;8.00;;;5.07;;
13443;SDS011;6794;59.218;18.218;2022-07-21T03:06:46;7.77;;;5.20;;
13443;SDS011;6794;59.218;18.218;2022-07-21T03:09:12;5.63;;;5.13;;
13443;SDS011;6794;59.218;18.218;2022-07-21T03:11:38;7.27;;;5.20;;
13443;SDS011;6794;59.218;18.218;2022-07-21T03:14:04;6.73;;;5.37;;
13443;SDS011;6794;59.218;18.218;2022-07-21T03:16:30;6.83;;;5.17;;
13443;SDS011;6794;59.218;18.218;2022-07-21T03:18:56;8.07;;;5.63;;
13443;SDS011;6794;59.218;18.218;2022-07-21T03:21:22;5.67;;;4.93;;
13443;SDS011;6794;59.218;18.218;2022-07-21T03:23:48;6.43;;;5.13;;
13443;SDS011;6794;59.218;18.218;2022-07-21T03:26:15;6.67;;;4.93;;
13443;SDS011;6794;59.218;18.218;2022-07-21T03:28:42;5.90;;;5.30;;
13443;SDS011;6794;59.218;18.218;2022-07-21T03:31:08;5.27;;;4.77;;
13443;SDS011;6794;59.218;18.218;2022-07-21T03:33:34;8.00;;;4.97;;
13443;SDS011;6794;59.218;18.218;2022-07-21T03:36:00;6.40;;;5.07;;
13443;SDS011;6794;59.218;18.218;2022-07-21T03:38:27;7.23;;;5.27;;
13443;SDS011;6794;59.218;18.218;2022-07-21T03:40:53;5.43;;;4.93;;
13443;SDS011;6794;59.218;18.218;2022-07-21T03:43:19;6.17;;;5.17;;
13443;SDS011;6794;59.218;18.218;2022-07-21T03:45:45;6.20;;;4.93;;
13443;SDS011;6794;59.218;18.218;2022-07-21T03:48:11;5.40;;;4.90;;
13443;SDS011;6794;59.218;18.218;2022-07-21T03:50:39;6.33;;;4.97;;
13443;SDS011;6794;59.218;18.218;2022-07-21T03:53:05;8.80;;;5.30;;
13443;SDS011;6794;59.218;18.218;2022-07-21T03:55:31;7.27;;;5.43;;
13443;SDS011;6794;59.218;18.218;2022-07-21T03:58:02;5.43;;;4.87;;
13443;SDS011;6794;59.218;18.218;2022-07-21T04:00:29;6.20;;;5.50;;
13443;SDS011;6794;59.218;18.218;2022-07-21T04:02:56;6.00;;;4.97;;
13443;SDS011;6794;59.218;18.218;2022-07-21T04:05:22;5.83;;;5.23;;
13443;SDS011;6794;59.218;18.218;2022-07-21T04:07:49;5.43;;;4.90;;
13443;SDS011;6794;59.218;18.218;2022-07-21T04:10:16;5.17;;;4.60;;
13443;SDS011;6794;59.218;18.218;2022-07-21T04:12:43;5.70;;;5.00;;
13443;SDS011;6794;59.218;18.218;2022-07-21T04:15:09;5.47;;;4.87;;
13443;SDS011;6794;59.218;18.218;2022-07-21T04:17:36;10.40;;;8.70;;
13443;SDS011;6794;59.218;18.218;2022-07-21T04:20:02;7.80;;;6.13;;
13443;SDS011;6794;59.218;18.218;2022-07-21T04:22:29;7.70;;;6.90;;
13443;SDS011;6794;59.218;18.218;2022-07-21T04:24:55;9.00;;;7.60;;
13443;SDS011;6794;59.218;18.218;2022-07-21T04:27:21;8.00;;;5.83;;
13443;SDS011;6794;59.218;18.218;2022-07-21T04:29:47;6.83;;;5.87;;
13443;SDS011;6794;59.218;18.218;2022-07-21T04:32:13;8.47;;;5.27;;
13443;SDS011;6794;59.218;18.218;2022-07-21T04:34:39;8.13;;;5.57;;
13443;SDS011;6794;59.218;18.218;2022-07-21T04:37:05;5.50;;;5.00;;
13443;SDS011;6794;59.218;18.218;2022-07-21T04:39:31;6.17;;;5.07;;
13443;SDS011;6794;59.218;18.218;2022-07-21T04:41:57;5.10;;;4.60;;
13443;SDS011;6794;59.218;18.218;2022-07-21T04:44:23;6.20;;;5.60;;
13443;SDS011;6794;59.218;18.218;2022-07-21T04:46:49;7.67;;;4.87;;
13443;SDS011;6794;59.218;18.218;2022-07-21T04:49:16;5.93;;;5.33;;
13443;SDS011;6794;59.218;18.218;2022-07-21T04:51:42;6.03;;;5.43;;
13443;SDS011;6794;59.218;18.218;2022-07-21T04:54:08;5.43;;;5.03;;
13443;SDS011;6794;59.218;18.218;2022-07-21T04:56:34;5.97;;;5.37;;
13443;SDS011;6794;59.218;18.218;2022-07-21T04:59:01;6.13;;;5.53;;
13443;SDS011;6794;59.218;18.218;2022-07-21T05:01:28;6.33;;;5.03;;
13443;SDS011;6794;59.218;18.218;2022-07-21T05:03:54;5.90;;;5.30;;
13443;SDS011;6794;59.218;18.218;2022-07-21T05:06:20;6.27;;;5.43;;
13443;SDS011;6794;59.218;18.218;2022-07-21T05:08:46;6.80;;;6.20;;
13443;SDS011;6794;59.218;18.218;2022-07-21T05:11:12;5.73;;;5.23;;
13443;SDS011;6794;59.218;18.218;2022-07-21T05:13:39;8.57;;;5.47;;
13443;SDS011;6794;59.218;18.218;2022-07-21T05:16:05;5.83;;;5.33;;
13443;SDS011;6794;59.218;18.218;2022-07-21T05:18:32;6.97;;;5.70;;
13443;SDS011;6794;59.218;18.218;2022-07-21T05:20:58;5.83;;;5.00;;
13443;SDS011;6794;59.218;18.218;2022-07-21T05:23:24;7.47;;;5.60;;
13443;SDS011;6794;59.218;18.218;2022-07-21T05:25:50;6.43;;;5.13;;
13443;SDS011;6794;59.218;18.218;2022-07-21T05:28:16;5.50;;;5.07;;
13443;SDS011;6794;59.218;18.218;2022-07-21T05:30:42;7.13;;;5.17;;
13443;SDS011;6794;59.218;18.218;2022-07-21T05:33:09;5.43;;;4.97;;
13443;SDS011;6794;59.218;18.218;2022-07-21T05:35:35;5.63;;;5.13;;
13443;SDS011;6794;59.218;18.218;2022-07-21T05:38:01;5.50;;;5.00;;
13443;SDS011;6794;59.218;18.218;2022-07-21T05:40:27;7.50;;;6.00;;
13443;SDS011;6794;59.218;18.218;2022-07-21T05:42:53;8.53;;;5.43;;
13443;SDS011;6794;59.218;18.218;2022-07-21T05:45:19;7.90;;;5.60;;
13443;SDS011;6794;59.218;18.218;2022-07-21T05:47:45;7.67;;;5.40;;
13443;SDS011;6794;59.218;18.218;2022-07-21T05:50:11;6.13;;;5.10;;
13443;SDS011;6794;59.218;18.218;2022-07-21T05:52:37;6.00;;;5.10;;
13443;SDS011;6794;59.218;18.218;2022-07-21T05:55:04;5.97;;;5.20;;
13443;SDS011;6794;59.218;18.218;2022-07-21T05:57:30;6.03;;;5.43;;
13443;SDS011;6794;59.218;18.218;2022-07-21T05:59:56;5.67;;;5.13;;
13443;SDS011;6794;59.218;18.218;2022-07-21T06:02:23;5.93;;;5.33;;
13443;SDS011;6794;59.218;18.218;2022-07-21T06:04:49;7.63;;;5.90;;
13443;SDS011;6794;59.218;18.218;2022-07-21T06:07:16;6.07;;;5.43;;
13443;SDS011;6794;59.218;18.218;2022-07-21T06:09:42;6.90;;;5.50;;
13443;SDS011;6794;59.218;18.218;2022-07-21T06:12:08;8.70;;;5.60;;
13443;SDS011;6794;59.218;18.218;2022-07-21T06:14:34;6.93;;;5.63;;
13443;SDS011;6794;59.218;18.218;2022-07-21T06:17:00;7.10;;;5.27;;
13443;SDS011;6794;59.218;18.218;2022-07-21T06:19:26;5.87;;;5.37;;
13443;SDS011;6794;59.218;18.218;2022-07-21T06:21:52;6.53;;;5.83;;
13443;SDS011;6794;59.218;18.218;2022-07-21T06:24:19;6.53;;;5.90;;
13443;SDS011;6794;59.218;18.218;2022-07-21T06:26:47;6.30;;;5.50;;
13443;SDS011;6794;59.218;18.218;2022-07-21T06:29:13;6.10;;;5.30;;
13443;SDS011;6794;59.218;18.218;2022-07-21T06:31:39;6.70;;;5.83;;
13443;SDS011;6794;59.218;18.218;2022-07-21T06:34:05;6.30;;;5.70;;
13443;SDS011;6794;59.218;18.218;2022-07-21T06:36:31;6.77;;;5.83;;
13443;SDS011;6794;59.218;18.218;2022-07-21T06:38:57;6.97;;;5.70;;
13443;SDS011;6794;59.218;18.218;2022-07-21T06:41:23;7.47;;;5.90;;
13443;SDS011;6794;59.218;18.218;2022-07-21T06:43:49;5.80;;;5.30;;
13443;SDS011;6794;59.218;18.218;2022-07-21T06:46:15;6.67;;;5.53;;
13443;SDS011;6794;59.218;18.218;2022-07-21T06:48:41;7.43;;;6.27;;
13443;SDS011;6794;59.218;18.218;2022-07-21T06:51:07;6.20;;;5.60;;
13443;SDS011;6794;59.218;18.218;2022-07-21T06:53:33;5.93;;;5.43;;
13443;SDS011;6794;59.218;18.218;2022-07-21T06:55:59;8.00;;;6.27;;
13443;SDS011;6794;59.218;18.218;2022-07-21T06:58:26;6.93;;;5.87;;
13443;SDS011;6794;59.218;18.218;2022-07-21T07:00:52;6.77;;;6.17;;
13443;SDS011;6794;59.218;18.218;2022-07-21T07:03:19;6.20;;;5.53;;
13443;SDS011;6794;59.218;18.218;2022-07-21T07:05:45;6.50;;;5.90;;
13443;SDS011;6794;59.218;18.218;2022-07-21T07:08:12;6.53;;;5.87;;
13443;SDS011;6794;59.218;18.218;2022-07-21T07:10:39;6.93;;;6.03;;
13443;SDS011;6794;59.218;18.218;2022-07-21T07:13:05;6.10;;;5.60;;
13443;SDS011;6794;59.218;18.218;2022-07-21T07:15:31;6.33;;;5.73;;
13443;SDS011;6794;59.218;18.218;2022-07-21T07:17:57;9.00;;;5.77;;
13443;SDS011;6794;59.218;18.218;2022-07-21T07:20:24;8.37;;;6.30;;
13443;SDS011;6794;59.218;18.218;2022-07-21T07:22:50;6.40;;;5.80;;
13443;SDS011;6794;59.218;18.218;2022-07-21T07:25:16;7.43;;;6.03;;
13443;SDS011;6794;59.218;18.218;2022-07-21T07:27:43;6.60;;;5.93;;
13443;SDS011;6794;59.218;18.218;2022-07-21T07:30:09;6.90;;;6.30;;
13443;SDS011;6794;59.218;18.218;2022-07-21T07:32:36;6.17;;;5.67;;
13443;SDS011;6794;59.218;18.218;2022-07-21T07:35:02;6.73;;;5.90;;
13443;SDS011;6794;59.218;18.218;2022-07-21T07:37:28;8.33;;;7.30;;
13443;SDS011;6794;59.218;18.218;2022-07-21T07:39:54;6.57;;;5.47;;
13443;SDS011;6794;59.218;18.218;2022-07-21T07:42:20;6.50;;;5.90;;
13443;SDS011;6794;59.218;18.218;2022-07-21T07:44:46;7.53;;;6.10;;
13443;SDS011;6794;59.218;18.218;2022-07-21T07:47:13;6.30;;;5.80;;
13443;SDS011;6794;59.218;18.218;2022-07-21T07:49:39;7.43;;;6.57;;
13443;SDS011;6794;59.218;18.218;2022-07-21T07:52:05;7.13;;;6.43;;
13443;SDS011;6794;59.218;18.218;2022-07-21T07:54:31;7.63;;;5.73;;
13443;SDS011;6794;59.218;18.218;2022-07-21T07:56:57;6.63;;;5.97;;
13443;SDS011;6794;59.218;18.218;2022-07-21T07:59:23;6.43;;;5.73;;
13443;SDS011;6794;59.218;18.218;2022-07-21T08:01:49;6.10;;;5.47;;
13443;SDS011;6794;59.218;18.218;2022-07-21T08:04:15;5.77;;;5.27;;
13443;SDS011;6794;59.218;18.218;2022-07-21T08:06:41;7.30;;;5.97;;
13443;SDS011;6794;59.218;18.218;2022-07-21T08:09:07;5.87;;;5.37;;
13443;SDS011;6794;59.218;18.218;2022-07-21T08:11:34;6.20;;;5.70;;
13443;SDS011;6794;59.218;18.218;2022-07-21T08:14:00;5.63;;;5.13;;
13443;SDS011;6794;59.218;18.218;2022-07-21T08:16:26;5.77;;;5.37;;
13443;SDS011;6794;59.218;18.218;2022-07-21T08:18:52;6.90;;;5.63;;
13443;SDS011;6794;59.218;18.218;2022-07-21T08:21:18;7.93;;;5.53;;
13443;SDS011;6794;59.218;18.218;2022-07-21T08:23:44;6.17;;;5.57;;
13443;SDS011;6794;59.218;18.218;2022-07-21T08:26:10;6.90;;;5.70;;
13443;SDS011;6794;59.218;18.218;2022-07-21T08:28:37;5.43;;;5.03;;
13443;SDS011;6794;59.218;18.218;2022-07-21T08:31:03;5.53;;;5.10;;
13443;SDS011;6794;59.218;18.218;2022-07-21T08:33:30;6.80;;;5.33;;
13443;SDS011;6794;59.218;18.218;2022-07-21T08:35:56;5.63;;;4.87;;
13443;SDS011;6794;59.218;18.218;2022-07-21T08:38:22;6.20;;;5.43;;
13443;SDS011;6794;59.218;18.218;2022-07-21T08:40:49;6.10;;;5.50;;
13443;SDS011;6794;59.218;18.218;2022-07-21T08:43:15;5.80;;;5.30;;
13443;SDS011;6794;59.218;18.218;2022-07-21T08:45:41;5.27;;;4.77;;
13443;SDS011;6794;59.218;18.218;2022-07-21T08:48:08;6.17;;;5.63;;
13443;SDS011;6794;59.218;18.218;2022-07-21T08:50:36;5.70;;;5.10;;
13443;SDS011;6794;59.218;18.218;2022-07-21T08:53:02;6.30;;;5.70;;
13443;SDS011;6794;59.218;18.218;2022-07-21T08:55:29;5.93;;;5.43;;
13443;SDS011;6794;59.218;18.218;2022-07-21T08:57:57;6.70;;;5.30;;
13443;SDS011;6794;59.218;18.218;2022-07-21T09:00:23;6.53;;;5.53;;
13443;SDS011;6794;59.218;18.218;2022-07-21T09:02:50;6.70;;;5.33;;
13443;SDS011;6794;59.218;18.218;2022-07-21T09:05:33;6.00;;;5.40;;
13443;SDS011;6794;59.218;18.218;2022-07-21T09:07:59;6.00;;;5.40;;
13443;SDS011;6794;59.218;18.218;2022-07-21T09:10:26;6.67;;;5.57;;
13443;SDS011;6794;59.218;18.218;2022-07-21T09:12:57;6.00;;;5.47;;
13443;SDS011;6794;59.218;18.218;2022-07-21T09:15:24;5.80;;;5.30;;
13443;SDS011;6794;59.218;18.218;2022-07-21T09:20:34;6.27;;;5.67;;
13443;SDS011;6794;59.218;18.218;2022-07-21T09:23:01;6.17;;;5.57;;
13443;SDS011;6794;59.218;18.218;2022-07-21T09:25:43;5.60;;;5.10;;
13443;SDS011;6794;59.218;18.218;2022-07-21T09:28:11;7.07;;;5.90;;
13443;SDS011;6794;59.218;18.218;2022-07-21T09:33:42;6.50;;;5.13;;
13443;SDS011;6794;59.218;18.218;2022-07-21T09:36:13;5.43;;;5.03;;
13443;SDS011;6794;59.218;18.218;2022-07-21T09:41:17;5.30;;;4.80;;
13443;SDS011;6794;59.218;18.218;2022-07-21T09:43:44;6.10;;;5.10;;
13443;SDS011;6794;59.218;18.218;2022-07-21T09:46:15;5.27;;;4.70;;
13443;SDS011;6794;59.218;18.218;2022-07-21T09:48:43;5.03;;;4.57;;
13443;SDS011;6794;59.218;18.218;2022-07-21T09:54:03;5.00;;;4.60;;
13443;SDS011;6794;59.218;18.218;2022-07-21T09:56:34;5.63;;;5.00;;
13443;SDS011;6794;59.218;18.218;2022-07-21T09:59:00;5.53;;;5.03;;
13443;SDS011;6794;59.218;18.218;2022-07-21T10:01:27;5.23;;;4.73;;
13443;SDS011;6794;59.218;18.218;2022-07-21T10:03:54;5.27;;;4.50;;
13443;SDS011;6794;59.218;18.218;2022-07-21T10:06:28;4.80;;;4.40;;
13443;SDS011;6794;59.218;18.218;2022-07-21T10:08:55;5.03;;;4.53;;
13443;SDS011;6794;59.218;18.218;2022-07-21T10:11:21;5.67;;;5.07;;
13443;SDS011;6794;59.218;18.218;2022-07-21T10:13:48;4.90;;;4.50;;
13443;SDS011;6794;59.218;18.218;2022-07-21T10:16:14;5.20;;;4.70;;
13443;SDS011;6794;59.218;18.218;2022-07-21T10:24:01;4.73;;;4.33;;
13443;SDS011;6794;59.218;18.218;2022-07-21T10:26:27;5.43;;;4.60;;
13443;SDS011;6794;59.218;18.218;2022-07-21T10:28:53;5.00;;;4.50;;
13443;SDS011;6794;59.218;18.218;2022-07-21T10:31:20;5.17;;;4.70;;
13443;SDS011;6794;59.218;18.218;2022-07-21T10:41:40;5.13;;;4.73;;
13443;SDS011;6794;59.218;18.218;2022-07-21T10:46:58;4.77;;;4.37;;
13443;SDS011;6794;59.218;18.218;2022-07-21T10:50:09;5.30;;;4.83;;
13443;SDS011;6794;59.218;18.218;2022-07-21T10:57:38;4.40;;;4.00;;
13443;SDS011;6794;59.218;18.218;2022-07-21T11:02:49;4.70;;;4.20;;
13443;SDS011;6794;59.218;18.218;2022-07-21T11:05:15;5.77;;;3.80;;
13443;SDS011;6794;59.218;18.218;2022-07-21T11:10:27;4.73;;;4.30;;
13443;SDS011;6794;59.218;18.218;2022-07-21T11:12:56;4.47;;;3.90;;
13443;SDS011;6794;59.218;18.218;2022-07-21T11:18:07;4.37;;;3.97;;
13443;SDS011;6794;59.218;18.218;2022-07-21T11:20:33;4.60;;;4.20;;
13443;SDS011;6794;59.218;18.218;2022-07-21T11:22:59;7.13;;;4.00;;
13443;SDS011;6794;59.218;18.218;2022-07-21T11:25:28;4.57;;;4.17;;
13443;SDS011;6794;59.218;18.218;2022-07-21T11:27:54;4.30;;;3.63;;
13443;SDS011;6794;59.218;18.218;2022-07-21T11:30:20;4.00;;;3.60;;
13443;SDS011;6794;59.218;18.218;2022-07-21T11:32:47;4.70;;;4.20;;
13443;SDS011;6794;59.218;18.218;2022-07-21T11:35:13;4.70;;;3.87;;
13443;SDS011;6794;59.218;18.218;2022-07-21T11:37:43;4.10;;;3.80;;
13443;SDS011;6794;59.218;18.218;2022-07-21T11:42:39;4.43;;;3.50;;
13443;SDS011;6794;59.218;18.218;2022-07-21T11:45:05;4.20;;;3.80;;
13443;SDS011;6794;59.218;18.218;2022-07-21T11:47:32;3.90;;;3.47;;
13443;SDS011;6794;59.218;18.218;2022-07-21T11:49:59;3.40;;;3.10;;
13443;SDS011;6794;59.218;18.218;2022-07-21T11:52:27;3.63;;;3.33;;
13443;SDS011;6794;59.218;18.218;2022-07-21T11:54:54;4.50;;;3.53;;
13443;SDS011;6794;59.218;18.218;2022-07-21T11:57:23;4.23;;;3.17;;
13443;SDS011;6794;59.218;18.218;2022-07-21T11:59:50;4.13;;;3.07;;
13443;SDS011;6794;59.218;18.218;2022-07-21T12:02:21;4.30;;;3.40;;
13443;SDS011;6794;59.218;18.218;2022-07-21T12:04:50;3.50;;;3.20;;
13443;SDS011;6794;59.218;18.218;2022-07-21T12:07:18;3.80;;;3.50;;
13443;SDS011;6794;59.218;18.218;2022-07-21T12:09:46;3.30;;;3.00;;
13443;SDS011;6794;59.218;18.218;2022-07-21T12:12:12;3.57;;;2.73;;
13443;SDS011;6794;59.218;18.218;2022-07-21T12:14:43;3.20;;;2.90;;
13443;SDS011;6794;59.218;18.218;2022-07-21T12:17:09;4.20;;;3.03;;
13443;SDS011;6794;59.218;18.218;2022-07-21T12:19:35;3.37;;;2.93;;
13443;SDS011;6794;59.218;18.218;2022-07-21T12:22:02;3.63;;;3.33;;
13443;SDS011;6794;59.218;18.218;2022-07-21T12:24:47;2.90;;;2.70;;
13443;SDS011;6794;59.218;18.218;2022-07-21T12:27:13;3.33;;;3.00;;
13443;SDS011;6794;59.218;18.218;2022-07-21T12:29:39;4.87;;;3.27;;
13443;SDS011;6794;59.218;18.218;2022-07-21T12:32:05;4.57;;;3.00;;
13443;SDS011;6794;59.218;18.218;2022-07-21T12:34:31;3.30;;;3.00;;
13443;SDS011;6794;59.218;18.218;2022-07-21T12:36:57;4.03;;;3.50;;
13443;SDS011;6794;59.218;18.218;2022-07-21T12:39:24;5.17;;;3.20;;
13443;SDS011;6794;59.218;18.218;2022-07-21T12:42:29;4.03;;;3.73;;
13443;SDS011;6794;59.218;18.218;2022-07-21T12:44:56;3.90;;;3.60;;
13443;SDS011;6794;59.218;18.218;2022-07-21T12:47:22;4.10;;;3.80;;
13443;SDS011;6794;59.218;18.218;2022-07-21T12:49:55;3.80;;;3.40;;
13443;SDS011;6794;59.218;18.218;2022-07-21T12:52:22;4.27;;;3.87;;
13443;SDS011;6794;59.218;18.218;2022-07-21T12:54:49;5.40;;;4.07;;
13443;SDS011;6794;59.218;18.218;2022-07-21T12:57:15;4.80;;;4.10;;
13443;SDS011;6794;59.218;18.218;2022-07-21T12:59:41;4.70;;;4.20;;
13443;SDS011;6794;59.218;18.218;2022-07-21T13:02:07;5.97;;;4.23;;
13443;SDS011;6794;59.218;18.218;2022-07-21T13:04:33;4.73;;;4.20;;
13443;SDS011;6794;59.218;18.218;2022-07-21T13:06:59;5.23;;;4.60;;
13443;SDS011;6794;59.218;18.218;2022-07-21T13:09:25;5.00;;;4.40;;
13443;SDS011;6794;59.218;18.218;2022-07-21T13:11:51;6.37;;;5.33;;
13443;SDS011;6794;59.218;18.218;2022-07-21T13:14:17;6.57;;;5.30;;
13443;SDS011;6794;59.218;18.218;2022-07-21T13:16:43;5.57;;;5.07;;
13443;SDS011;6794;59.218;18.218;2022-07-21T13:19:09;5.40;;;4.97;;
13443;SDS011;6794;59.218;18.218;2022-07-21T13:21:35;6.10;;;5.30;;
13443;SDS011;6794;59.218;18.218;2022-07-21T13:24:02;5.50;;;4.87;;
13443;SDS011;6794;59.218;18.218;2022-07-21T13:26:28;6.00;;;5.50;;
13443;SDS011;6794;59.218;18.218;2022-07-21T13:28:54;6.73;;;5.07;;
13443;SDS011;6794;59.218;18.218;2022-07-21T13:31:20;5.97;;;5.47;;
13443;SDS011;6794;59.218;18.218;2022-07-21T13:33:46;6.97;;;6.27;;
13443;SDS011;6794;59.218;18.218;2022-07-21T13:36:12;6.37;;;5.77;;
13443;SDS011;6794;59.218;18.218;2022-07-21T13:38:38;6.60;;;6.00;;
13443;SDS011;6794;59.218;18.218;2022-07-21T13:41:05;6.80;;;6.20;;
13443;SDS011;6794;59.218;18.218;2022-07-21T13:43:32;7.50;;;6.70;;
13443;SDS011;6794;59.218;18.218;2022-07-21T13:45:58;6.43;;;5.83;;
13443;SDS011;6794;59.218;18.218;2022-07-21T13:48:24;7.70;;;6.57;;
13443;SDS011;6794;59.218;18.218;2022-07-21T13:50:50;6.57;;;5.60;;
13443;SDS011;6794;59.218;18.218;2022-07-21T13:53:16;7.50;;;6.03;;
13443;SDS011;6794;59.218;18.218;2022-07-21T13:55:42;7.93;;;6.90;;
13443;SDS011;6794;59.218;18.218;2022-07-21T13:58:08;6.87;;;6.23;;
13443;SDS011;6794;59.218;18.218;2022-07-21T14:00:35;7.93;;;6.33;;
13443;SDS011;6794;59.218;18.218;2022-07-21T14:03:01;7.30;;;6.67;;
13443;SDS011;6794;59.218;18.218;2022-07-21T14:05:27;6.60;;;6.00;;
13443;SDS011;6794;59.218;18.218;2022-07-21T14:07:53;6.97;;;6.00;;
13443;SDS011;6794;59.218;18.218;2022-07-21T14:10:19;7.60;;;6.90;;
13443;SDS011;6794;59.218;18.218;2022-07-21T14:12:45;8.13;;;7.43;;
13443;SDS011;6794;59.218;18.218;2022-07-21T14:15:11;9.67;;;6.90;;
13443;SDS011;6794;59.218;18.218;2022-07-21T14:17:37;7.60;;;7.00;;
13443;SDS011;6794;59.218;18.218;2022-07-21T14:20:04;8.53;;;7.63;;
13443;SDS011;6794;59.218;18.218;2022-07-21T14:22:30;7.57;;;6.97;;
13443;SDS011;6794;59.218;18.218;2022-07-21T14:24:56;9.07;;;7.97;;
13443;SDS011;6794;59.218;18.218;2022-07-21T14:27:42;7.67;;;7.00;;
13443;SDS011;6794;59.218;18.218;2022-07-21T14:30:08;8.90;;;7.43;;
13443;SDS011;6794;59.218;18.218;2022-07-21T14:32:34;7.53;;;6.77;;
13443;SDS011;6794;59.218;18.218;2022-07-21T14:35:00;8.17;;;7.47;;
13443;SDS011;6794;59.218;18.218;2022-07-21T14:37:26;7.77;;;6.93;;
13443;SDS011;6794;59.218;18.218;2022-07-21T14:39:52;8.30;;;7.60;;
13443;SDS011;6794;59.218;18.218;2022-07-21T14:42:18;7.83;;;6.90;;
13443;SDS011;6794;59.218;18.218;2022-07-21T14:44:45;8.60;;;7.70;;
13443;SDS011;6794;59.218;18.218;2022-07-21T14:47:11;7.97;;;7.20;;
13443;SDS011;6794;59.218;18.218;2022-07-21T14:49:37;6.93;;;6.27;;
13443;SDS011;6794;59.218;18.218;2022-07-21T14:52:04;8.40;;;7.10;;
13443;SDS011;6794;59.218;18.218;2022-07-21T14:54:30;7.23;;;6.53;;
13443;SDS011;6794;59.218;18.218;2022-07-21T14:56:56;8.23;;;6.70;;
13443;SDS011;6794;59.218;18.218;2022-07-21T14:59:22;7.17;;;6.53;;
13443;SDS011;6794;59.218;18.218;2022-07-21T15:01:48;7.17;;;6.50;;
13443;SDS011;6794;59.218;18.218;2022-07-21T15:04:14;7.53;;;6.53;;
13443;SDS011;6794;59.218;18.218;2022-07-21T15:06:40;7.20;;;6.57;;
13443;SDS011;6794;59.218;18.218;2022-07-21T15:09:10;8.37;;;6.30;;
13443;SDS011;6794;59.218;18.218;2022-07-21T15:11:36;6.47;;;5.87;;
13443;SDS011;6794;59.218;18.218;2022-07-21T15:14:02;7.73;;;6.47;;
13443;SDS011;6794;59.218;18.218;2022-07-21T15:16:28;8.07;;;6.50;;
13443;SDS011;6794;59.218;18.218;2022-07-21T15:18:54;8.87;;;6.20;;
13443;SDS011;6794;59.218;18.218;2022-07-21T15:21:20;7.13;;;6.30;;
13443;SDS011;6794;59.218;18.218;2022-07-21T15:23:46;6.77;;;6.17;;
13443;SDS011;6794;59.218;18.218;2022-07-21T15:26:12;6.30;;;5.77;;
13443;SDS011;6794;59.218;18.218;2022-07-21T15:28:38;7.63;;;6.23;;